BGSFCYFB

Guest
Details From BGSF - Kangerlussuaq
To CYFB - Iqaluit
Flight Number -
Tags generated
Created
Modified
Stats Distance 486 nm / 900 km
Max Altitude 18,000 ft / 5,486 m
Waypoints 4
Social Downloads 0
Likes 0
Share VATSIM

Download

Looking for another format? Having issues loading an existing format? Contact us
Advertisement - Login to hide

Notes

Basic altitude profile: - Ascent Rate: 2500ft/min - Ascent Speed: 250kts - Cruise Altitude: 35000ft - Cruise Speed: 420kts - Descent Rate: 1500ft/min - Descent Speed: 250kts Options: - Use NATs: yes - Use PACOTS: yes - Use low airways: yes - Use high airways: yes

Route

BGSF SF 5E72 YFB CYFB

ID Type Via Altitude Latitude Longitude Leg Dist Tot Dist Heading (true) Name
O BGSF APT - 0 ft / 0 m 67.01160˚ -50.71472˚ - 0 nm - Kangerlussuaq
SF NDB - 2,100 ft / 640 m 66.96749˚ -50.94167˚ 5 nm 5 nm 244° / 243° SONDRE STROMFJORD NDB
YFB VOR 5E72 (AWY-HI) 18,000 ft / 5,486 m 63.74167˚ -68.47333˚ 477 nm 483 nm 254° / 238° FROBAY VOR
O CYFB APT - 0 ft / 0 m 63.75657˚ -68.55606˚ 2 nm 486 nm 292° / 292° Iqaluit

Altitude Profile

Advertisement - Login to hide

Weather


0- 5 10 15 20 25 30 35+ Temperature / ° C

Clouds and Precipitation
Forecast for 2017-12-14 06:00 UTC. Updated an hour ago

Ground ~20,000 ft ~40,000 ft Winds

BGSF

Details ICAO BGSF (SFJ)
Name Kangerlussuaq
Region Greenland
Timezone America/Godthab (UTC-3.0)
Stats Elevation 165 ft / 50 m (AMSL)
Location 67.011605° -50.714721°
Runways 2
Magnetic Variation 29.036° W

METAR

BGSF 140150Z AUTO 06008KT 9999NDV BKN055/// OVC070/// M13/M15 Q1021

Decode

TAF

TAF AMD TAF AMD BGSF 132353Z 1400/1506 06008KT 9999 SCT060 BKN130 PROB40 1400/1406 30010KT 3000 -SN BKN020 TEMPO 1406/1506 BKN060

Decode

Departure Runways

ID Width Length Bearing (true) Bearing (mag) Surface Threshold Offset Overrun Length
09 197 ft / 60 m 9,169 ft / 2,795 m 61.57° 90.61° Asphalt 0 ft / 0 m 509 ft / 155 m
10 197 ft / 60 m 9,187 ft / 2,800 m 61.55° 90.59° Asphalt 0 ft / 0 m 0 ft / 0 m
27 197 ft / 60 m 9,169 ft / 2,795 m 241.63° 270.67° Asphalt 0 ft / 0 m 171 ft / 52 m
28 197 ft / 60 m 9,187 ft / 2,800 m 241.60° 270.64° Asphalt 0 ft / 0 m 0 ft / 0 m

CYFB

Details ICAO CYFB (YFB)
Name Iqaluit
Region Canada
Timezone America/Iqaluit (UTC-5.0)
Stats Elevation 110 ft / 34 m (AMSL)
Location 63.756565° -68.556058°
Runways 1
Magnetic Variation 27.543° W

METAR

CYFB 140218Z 00000KT 15SM -SN OVC032 M13/M18 A3010 RMK SC8 SLP198

Decode

TAF

TAF CYFB 132339Z 1400/1424 VRB03KT P6SM -SN BKN040 TEMPO 1400/1403 P6SM NSW SCT040 FM140300 VRB03KT P6SM SCT025 FM141200 33012KT P6SM SCT150 BECMG 1417/1419 SCT080 BKN150 RMK NXT FCST BY 140600Z

Decode

Destination Runways

ID Width Length Bearing (true) Bearing (mag) Surface Threshold Offset Overrun Length
17 200 ft / 61 m 8,605 ft / 2,623 m 135.58° 163.12° Asphalt 0 ft / 0 m 210 ft / 64 m
35 200 ft / 61 m 8,605 ft / 2,623 m 315.62° 343.16° Asphalt 0 ft / 0 m 243 ft / 74 m

Popular Alternatives